sensor_id;sensor_type;location;lat;lon;timestamp;P1;durP1;ratioP1;P2;durP2;ratioP2
3249;SDS011;1637;42.020;23.992;2023-03-01T00:00:51;2.30;;;1.20;;
3249;SDS011;1637;42.020;23.992;2023-03-01T00:03:18;1.90;;;1.30;;
3249;SDS011;1637;42.020;23.992;2023-03-01T00:05:46;4.00;;;1.40;;
3249;SDS011;1637;42.020;23.992;2023-03-01T00:08:13;1.00;;;0.90;;
3249;SDS011;1637;42.020;23.992;2023-03-01T00:10:40;2.57;;;1.70;;
3249;SDS011;1637;42.020;23.992;2023-03-01T00:13:07;3.27;;;2.13;;
3249;SDS011;1637;42.020;23.992;2023-03-01T00:15:37;4.43;;;2.13;;
3249;SDS011;1637;42.020;23.992;2023-03-01T00:18:04;8.80;;;3.07;;
3249;SDS011;1637;42.020;23.992;2023-03-01T00:20:31;6.13;;;1.60;;
3249;SDS011;1637;42.020;23.992;2023-03-01T00:22:59;1.67;;;1.13;;
3249;SDS011;1637;42.020;23.992;2023-03-01T00:25:26;1.50;;;1.10;;
3249;SDS011;1637;42.020;23.992;2023-03-01T00:27:53;2.10;;;1.30;;
3249;SDS011;1637;42.020;23.992;2023-03-01T00:30:20;1.93;;;1.43;;
3249;SDS011;1637;42.020;23.992;2023-03-01T00:32:46;1.57;;;1.20;;
3249;SDS011;1637;42.020;23.992;2023-03-01T00:35:13;1.30;;;1.00;;
3249;SDS011;1637;42.020;23.992;2023-03-01T00:37:40;1.30;;;1.07;;
3249;SDS011;1637;42.020;23.992;2023-03-01T00:40:09;1.23;;;0.90;;
3249;SDS011;1637;42.020;23.992;2023-03-01T00:42:37;1.97;;;0.77;;
3249;SDS011;1637;42.020;23.992;2023-03-01T00:45:04;0.90;;;0.70;;
3249;SDS011;1637;42.020;23.992;2023-03-01T00:47:32;1.60;;;1.00;;
3249;SDS011;1637;42.020;23.992;2023-03-01T00:49:59;4.07;;;1.20;;
3249;SDS011;1637;42.020;23.992;2023-03-01T00:52:26;1.83;;;1.17;;
3249;SDS011;1637;42.020;23.992;2023-03-01T00:54:53;2.13;;;1.10;;
3249;SDS011;1637;42.020;23.992;2023-03-01T00:57:21;1.20;;;1.00;;
3249;SDS011;1637;42.020;23.992;2023-03-01T00:59:48;1.00;;;0.90;;
3249;SDS011;1637;42.020;23.992;2023-03-01T01:02:17;1.80;;;1.30;;
3249;SDS011;1637;42.020;23.992;2023-03-01T01:04:44;1.40;;;1.00;;
3249;SDS011;1637;42.020;23.992;2023-03-01T01:07:11;3.73;;;1.27;;
3249;SDS011;1637;42.020;23.992;2023-03-01T01:09:38;1.27;;;0.90;;
3249;SDS011;1637;42.020;23.992;2023-03-01T01:12:05;1.93;;;1.23;;
3249;SDS011;1637;42.020;23.992;2023-03-01T01:14:33;1.87;;;1.77;;
3249;SDS011;1637;42.020;23.992;2023-03-01T01:17:01;2.40;;;1.50;;
3249;SDS011;1637;42.020;23.992;2023-03-01T01:19:28;3.20;;;1.40;;
3249;SDS011;1637;42.020;23.992;2023-03-01T01:21:54;1.70;;;1.23;;
3249;SDS011;1637;42.020;23.992;2023-03-01T01:24:21;1.77;;;1.23;;
3249;SDS011;1637;42.020;23.992;2023-03-01T01:26:48;1.80;;;1.33;;
3249;SDS011;1637;42.020;23.992;2023-03-01T01:29:15;2.70;;;1.27;;
3249;SDS011;1637;42.020;23.992;2023-03-01T01:31:43;2.10;;;1.70;;
3249;SDS011;1637;42.020;23.992;2023-03-01T01:34:12;1.33;;;1.00;;
3249;SDS011;1637;42.020;23.992;2023-03-01T01:36:41;1.97;;;1.10;;
3249;SDS011;1637;42.020;23.992;2023-03-01T01:39:08;3.93;;;1.10;;
3249;SDS011;1637;42.020;23.992;2023-03-01T01:41:38;2.33;;;1.03;;
3249;SDS011;1637;42.020;23.992;2023-03-01T01:44:15;1.43;;;1.00;;
3249;SDS011;1637;42.020;23.992;2023-03-01T01:46:45;1.23;;;1.13;;
3249;SDS011;1637;42.020;23.992;2023-03-01T01:49:17;1.60;;;1.30;;
3249;SDS011;1637;42.020;23.992;2023-03-01T01:51:51;2.23;;;1.20;;
3249;SDS011;1637;42.020;23.992;2023-03-01T01:54:26;3.40;;;1.43;;
3249;SDS011;1637;42.020;23.992;2023-03-01T01:56:56;2.03;;;1.53;;
3249;SDS011;1637;42.020;23.992;2023-03-01T01:59:26;1.63;;;1.10;;
3249;SDS011;1637;42.020;23.992;2023-03-01T02:01:58;2.10;;;1.17;;
3249;SDS011;1637;42.020;23.992;2023-03-01T02:04:27;4.33;;;1.37;;
3249;SDS011;1637;42.020;23.992;2023-03-01T02:06:55;4.40;;;1.50;;
3249;SDS011;1637;42.020;23.992;2023-03-01T02:09:27;2.73;;;1.50;;
3249;SDS011;1637;42.020;23.992;2023-03-01T02:11:54;5.00;;;1.70;;
3249;SDS011;1637;42.020;23.992;2023-03-01T02:14:22;2.83;;;1.20;;
3249;SDS011;1637;42.020;23.992;2023-03-01T02:16:49;2.23;;;1.27;;
3249;SDS011;1637;42.020;23.992;2023-03-01T02:19:22;1.47;;;1.17;;
3249;SDS011;1637;42.020;23.992;2023-03-01T02:21:59;2.60;;;1.23;;
3249;SDS011;1637;42.020;23.992;2023-03-01T02:24:34;2.53;;;1.50;;
3249;SDS011;1637;42.020;23.992;2023-03-01T02:27:09;2.13;;;1.27;;
3249;SDS011;1637;42.020;23.992;2023-03-01T02:29:37;3.97;;;1.80;;
3249;SDS011;1637;42.020;23.992;2023-03-01T02:32:04;1.80;;;1.20;;
3249;SDS011;1637;42.020;23.992;2023-03-01T02:34:31;1.87;;;1.60;;
3249;SDS011;1637;42.020;23.992;2023-03-01T02:37:00;1.57;;;1.30;;
3249;SDS011;1637;42.020;23.992;2023-03-01T02:39:31;1.87;;;1.33;;
3249;SDS011;1637;42.020;23.992;2023-03-01T02:42:07;3.30;;;1.57;;
3249;SDS011;1637;42.020;23.992;2023-03-01T02:44:38;2.60;;;1.43;;
3249;SDS011;1637;42.020;23.992;2023-03-01T02:47:05;2.30;;;1.70;;
3249;SDS011;1637;42.020;23.992;2023-03-01T02:49:33;5.17;;;1.93;;
3249;SDS011;1637;42.020;23.992;2023-03-01T02:52:17;3.20;;;1.90;;
3249;SDS011;1637;42.020;23.992;2023-03-01T02:55:03;4.93;;;1.90;;
3249;SDS011;1637;42.020;23.992;2023-03-01T02:57:36;3.87;;;2.30;;
3249;SDS011;1637;42.020;23.992;2023-03-01T03:00:08;8.40;;;3.20;;
3249;SDS011;1637;42.020;23.992;2023-03-01T03:02:44;3.80;;;2.30;;
3249;SDS011;1637;42.020;23.992;2023-03-01T03:05:12;4.27;;;2.40;;
3249;SDS011;1637;42.020;23.992;2023-03-01T03:07:41;5.10;;;3.00;;
3249;SDS011;1637;42.020;23.992;2023-03-01T03:10:11;7.87;;;2.83;;
3249;SDS011;1637;42.020;23.992;2023-03-01T03:12:40;5.90;;;2.40;;
3249;SDS011;1637;42.020;23.992;2023-03-01T03:15:09;3.17;;;2.20;;
3249;SDS011;1637;42.020;23.992;2023-03-01T03:17:38;5.20;;;2.50;;
3249;SDS011;1637;42.020;23.992;2023-03-01T03:20:08;12.27;;;3.17;;
3249;SDS011;1637;42.020;23.992;2023-03-01T03:22:37;4.17;;;3.13;;
3249;SDS011;1637;42.020;23.992;2023-03-01T03:25:05;6.80;;;2.80;;
3249;SDS011;1637;42.020;23.992;2023-03-01T03:27:35;4.40;;;2.43;;
3249;SDS011;1637;42.020;23.992;2023-03-01T03:30:02;4.30;;;2.23;;
3249;SDS011;1637;42.020;23.992;2023-03-01T03:32:35;4.80;;;2.53;;
3249;SDS011;1637;42.020;23.992;2023-03-01T03:35:02;4.80;;;2.27;;
3249;SDS011;1637;42.020;23.992;2023-03-01T03:37:34;6.93;;;2.70;;
3249;SDS011;1637;42.020;23.992;2023-03-01T03:40:19;3.47;;;3.13;;
3249;SDS011;1637;42.020;23.992;2023-03-01T03:42:46;4.57;;;2.90;;
3249;SDS011;1637;42.020;23.992;2023-03-01T03:45:49;3.20;;;2.50;;
3249;SDS011;1637;42.020;23.992;2023-03-01T03:48:18;5.97;;;2.77;;
3249;SDS011;1637;42.020;23.992;2023-03-01T03:50:47;7.57;;;3.43;;
3249;SDS011;1637;42.020;23.992;2023-03-01T03:53:15;5.13;;;3.60;;
3249;SDS011;1637;42.020;23.992;2023-03-01T03:55:42;5.83;;;3.60;;
3249;SDS011;1637;42.020;23.992;2023-03-01T03:58:09;4.30;;;3.17;;
3249;SDS011;1637;42.020;23.992;2023-03-01T04:00:38;7.10;;;3.50;;
3249;SDS011;1637;42.020;23.992;2023-03-01T04:03:06;5.43;;;3.17;;
3249;SDS011;1637;42.020;23.992;2023-03-01T04:05:34;6.13;;;4.27;;
3249;SDS011;1637;42.020;23.992;2023-03-01T04:08:02;5.50;;;3.57;;
3249;SDS011;1637;42.020;23.992;2023-03-01T04:10:33;4.90;;;2.97;;
3249;SDS011;1637;42.020;23.992;2023-03-01T04:13:02;5.40;;;3.13;;
3249;SDS011;1637;42.020;23.992;2023-03-01T04:15:30;6.27;;;3.30;;
3249;SDS011;1637;42.020;23.992;2023-03-01T04:17:57;8.60;;;4.33;;
3249;SDS011;1637;42.020;23.992;2023-03-01T04:20:25;7.10;;;4.73;;
3249;SDS011;1637;42.020;23.992;2023-03-01T04:22:58;8.30;;;3.60;;
3249;SDS011;1637;42.020;23.992;2023-03-01T04:25:35;10.10;;;4.80;;
3249;SDS011;1637;42.020;23.992;2023-03-01T04:28:03;8.10;;;4.30;;
3249;SDS011;1637;42.020;23.992;2023-03-01T04:30:30;9.73;;;5.27;;
3249;SDS011;1637;42.020;23.992;2023-03-01T04:33:01;7.43;;;4.03;;
3249;SDS011;1637;42.020;23.992;2023-03-01T04:35:28;8.90;;;5.33;;
3249;SDS011;1637;42.020;23.992;2023-03-01T04:37:55;9.67;;;5.80;;
3249;SDS011;1637;42.020;23.992;2023-03-01T04:40:24;12.00;;;5.80;;
3249;SDS011;1637;42.020;23.992;2023-03-01T04:42:50;11.97;;;5.90;;
3249;SDS011;1637;42.020;23.992;2023-03-01T04:45:17;10.10;;;5.57;;
3249;SDS011;1637;42.020;23.992;2023-03-01T04:47:45;14.10;;;7.30;;
3249;SDS011;1637;42.020;23.992;2023-03-01T04:50:13;13.90;;;7.70;;
3249;SDS011;1637;42.020;23.992;2023-03-01T04:52:41;19.80;;;8.73;;
3249;SDS011;1637;42.020;23.992;2023-03-01T04:55:08;20.57;;;10.77;;
3249;SDS011;1637;42.020;23.992;2023-03-01T04:57:37;20.33;;;9.10;;
3249;SDS011;1637;42.020;23.992;2023-03-01T05:00:05;15.97;;;7.07;;
3249;SDS011;1637;42.020;23.992;2023-03-01T05:02:45;17.13;;;9.70;;
3249;SDS011;1637;42.020;23.992;2023-03-01T05:05:18;13.13;;;7.50;;
3249;SDS011;1637;42.020;23.992;2023-03-01T05:07:46;19.10;;;7.80;;
3249;SDS011;1637;42.020;23.992;2023-03-01T05:10:13;16.60;;;8.37;;
3249;SDS011;1637;42.020;23.992;2023-03-01T05:12:41;14.40;;;8.83;;
3249;SDS011;1637;42.020;23.992;2023-03-01T05:15:08;16.57;;;9.43;;
3249;SDS011;1637;42.020;23.992;2023-03-01T05:17:35;24.30;;;10.10;;
3249;SDS011;1637;42.020;23.992;2023-03-01T05:20:02;31.73;;;11.63;;
3249;SDS011;1637;42.020;23.992;2023-03-01T05:22:33;25.77;;;10.20;;
3249;SDS011;1637;42.020;23.992;2023-03-01T05:25:01;22.00;;;9.90;;
3249;SDS011;1637;42.020;23.992;2023-03-01T05:27:27;17.57;;;10.13;;
3249;SDS011;1637;42.020;23.992;2023-03-01T05:29:56;23.50;;;9.17;;
3249;SDS011;1637;42.020;23.992;2023-03-01T05:32:22;14.93;;;8.67;;
3249;SDS011;1637;42.020;23.992;2023-03-01T05:34:49;24.03;;;12.60;;
3249;SDS011;1637;42.020;23.992;2023-03-01T05:37:17;22.03;;;13.17;;
3249;SDS011;1637;42.020;23.992;2023-03-01T05:39:44;32.20;;;17.20;;
3249;SDS011;1637;42.020;23.992;2023-03-01T05:42:11;20.63;;;10.67;;
3249;SDS011;1637;42.020;23.992;2023-03-01T05:44:38;18.80;;;11.37;;
3249;SDS011;1637;42.020;23.992;2023-03-01T05:47:06;17.47;;;9.07;;
3249;SDS011;1637;42.020;23.992;2023-03-01T05:49:34;16.27;;;8.77;;
3249;SDS011;1637;42.020;23.992;2023-03-01T05:52:00;11.90;;;6.90;;
3249;SDS011;1637;42.020;23.992;2023-03-01T05:54:27;16.57;;;8.10;;
3249;SDS011;1637;42.020;23.992;2023-03-01T05:56:54;17.57;;;9.20;;
3249;SDS011;1637;42.020;23.992;2023-03-01T05:59:21;55.27;;;26.60;;
3249;SDS011;1637;42.020;23.992;2023-03-01T06:01:48;37.70;;;18.87;;
3249;SDS011;1637;42.020;23.992;2023-03-01T06:04:16;16.77;;;8.27;;
3249;SDS011;1637;42.020;23.992;2023-03-01T06:06:43;24.30;;;13.83;;
3249;SDS011;1637;42.020;23.992;2023-03-01T06:09:10;65.60;;;33.47;;
3249;SDS011;1637;42.020;23.992;2023-03-01T06:11:36;67.20;;;30.80;;
3249;SDS011;1637;42.020;23.992;2023-03-01T06:14:03;36.57;;;14.90;;
3249;SDS011;1637;42.020;23.992;2023-03-01T06:16:31;33.57;;;17.50;;
3249;SDS011;1637;42.020;23.992;2023-03-01T06:18:58;63.33;;;36.83;;
3249;SDS011;1637;42.020;23.992;2023-03-01T06:21:26;33.37;;;18.30;;
3249;SDS011;1637;42.020;23.992;2023-03-01T06:23:53;32.80;;;15.33;;
3249;SDS011;1637;42.020;23.992;2023-03-01T06:26:19;28.87;;;15.40;;
3249;SDS011;1637;42.020;23.992;2023-03-01T06:28:46;25.43;;;14.27;;
3249;SDS011;1637;42.020;23.992;2023-03-01T06:31:13;27.23;;;15.70;;
3249;SDS011;1637;42.020;23.992;2023-03-01T06:33:40;38.93;;;22.80;;
3249;SDS011;1637;42.020;23.992;2023-03-01T06:36:07;33.13;;;19.60;;
3249;SDS011;1637;42.020;23.992;2023-03-01T06:38:36;60.43;;;31.60;;
3249;SDS011;1637;42.020;23.992;2023-03-01T06:41:03;46.30;;;22.70;;
3249;SDS011;1637;42.020;23.992;2023-03-01T06:43:30;50.63;;;29.87;;
3249;SDS011;1637;42.020;23.992;2023-03-01T06:45:57;46.90;;;28.40;;
3249;SDS011;1637;42.020;23.992;2023-03-01T06:48:24;24.47;;;14.33;;
3249;SDS011;1637;42.020;23.992;2023-03-01T06:50:50;26.50;;;14.93;;
3249;SDS011;1637;42.020;23.992;2023-03-01T06:53:17;12.57;;;8.27;;
3249;SDS011;1637;42.020;23.992;2023-03-01T06:55:45;12.50;;;8.50;;
3249;SDS011;1637;42.020;23.992;2023-03-01T06:58:12;12.50;;;8.73;;
3249;SDS011;1637;42.020;23.992;2023-03-01T07:00:39;12.20;;;8.07;;
3249;SDS011;1637;42.020;23.992;2023-03-01T07:03:08;14.63;;;9.50;;
3249;SDS011;1637;42.020;23.992;2023-03-01T07:05:34;31.00;;;18.87;;
3249;SDS011;1637;42.020;23.992;2023-03-01T07:08:01;35.20;;;18.40;;
3249;SDS011;1637;42.020;23.992;2023-03-01T07:10:28;65.43;;;45.00;;
3249;SDS011;1637;42.020;23.992;2023-03-01T07:12:56;30.43;;;14.23;;
3249;SDS011;1637;42.020;23.992;2023-03-01T07:15:25;48.13;;;32.33;;
3249;SDS011;1637;42.020;23.992;2023-03-01T07:17:52;39.10;;;20.93;;
3249;SDS011;1637;42.020;23.992;2023-03-01T07:20:19;24.17;;;13.63;;
3249;SDS011;1637;42.020;23.992;2023-03-01T07:22:49;22.17;;;13.00;;
3249;SDS011;1637;42.020;23.992;2023-03-01T07:25:16;29.20;;;16.83;;
3249;SDS011;1637;42.020;23.992;2023-03-01T07:27:43;25.13;;;13.37;;
3249;SDS011;1637;42.020;23.992;2023-03-01T07:30:12;30.77;;;16.13;;
3249;SDS011;1637;42.020;23.992;2023-03-01T07:32:39;42.60;;;18.80;;
3249;SDS011;1637;42.020;23.992;2023-03-01T07:35:06;31.67;;;16.43;;
3249;SDS011;1637;42.020;23.992;2023-03-01T07:37:33;36.77;;;19.27;;
3249;SDS011;1637;42.020;23.992;2023-03-01T07:40:00;42.67;;;25.90;;
3249;SDS011;1637;42.020;23.992;2023-03-01T07:42:27;40.80;;;23.07;;
3249;SDS011;1637;42.020;23.992;2023-03-01T07:44:53;34.67;;;20.80;;
3249;SDS011;1637;42.020;23.992;2023-03-01T07:47:22;47.67;;;24.10;;
3249;SDS011;1637;42.020;23.992;2023-03-01T07:49:48;41.00;;;24.10;;
3249;SDS011;1637;42.020;23.992;2023-03-01T07:52:15;67.07;;;35.10;;
3249;SDS011;1637;42.020;23.992;2023-03-01T07:54:42;38.60;;;19.97;;
3249;SDS011;1637;42.020;23.992;2023-03-01T07:57:10;33.00;;;19.47;;
3249;SDS011;1637;42.020;23.992;2023-03-01T07:59:37;30.90;;;16.33;;
3249;SDS011;1637;42.020;23.992;2023-03-01T08:02:04;36.13;;;19.80;;
3249;SDS011;1637;42.020;23.992;2023-03-01T08:04:33;50.13;;;33.20;;
3249;SDS011;1637;42.020;23.992;2023-03-01T08:06:59;41.27;;;22.83;;
3249;SDS011;1637;42.020;23.992;2023-03-01T08:09:26;30.80;;;20.50;;
3249;SDS011;1637;42.020;23.992;2023-03-01T08:11:53;9.57;;;6.63;;
3249;SDS011;1637;42.020;23.992;2023-03-01T08:14:20;12.00;;;8.00;;
3249;SDS011;1637;42.020;23.992;2023-03-01T08:16:48;17.73;;;12.67;;
3249;SDS011;1637;42.020;23.992;2023-03-01T08:19:15;11.40;;;8.17;;
3249;SDS011;1637;42.020;23.992;2023-03-01T08:21:44;10.60;;;7.47;;
3249;SDS011;1637;42.020;23.992;2023-03-01T08:24:11;28.67;;;14.20;;
3249;SDS011;1637;42.020;23.992;2023-03-01T08:26:38;22.10;;;13.13;;
3249;SDS011;1637;42.020;23.992;2023-03-01T08:29:05;25.33;;;11.93;;
3249;SDS011;1637;42.020;23.992;2023-03-01T08:31:33;47.87;;;26.43;;
3249;SDS011;1637;42.020;23.992;2023-03-01T08:34:03;32.20;;;16.57;;
3249;SDS011;1637;42.020;23.992;2023-03-01T08:36:34;31.43;;;17.90;;
3249;SDS011;1637;42.020;23.992;2023-03-01T08:39:04;23.37;;;12.90;;
3249;SDS011;1637;42.020;23.992;2023-03-01T08:41:31;15.60;;;9.17;;
3249;SDS011;1637;42.020;23.992;2023-03-01T08:43:58;14.60;;;8.40;;
3249;SDS011;1637;42.020;23.992;2023-03-01T08:46:25;12.80;;;8.73;;
3249;SDS011;1637;42.020;23.992;2023-03-01T08:48:52;17.43;;;10.17;;
3249;SDS011;1637;42.020;23.992;2023-03-01T08:51:19;18.63;;;11.60;;
3249;SDS011;1637;42.020;23.992;2023-03-01T08:53:48;7.10;;;5.00;;
3249;SDS011;1637;42.020;23.992;2023-03-01T08:56:17;5.93;;;3.40;;
3249;SDS011;1637;42.020;23.992;2023-03-01T08:58:44;15.70;;;7.70;;
3249;SDS011;1637;42.020;23.992;2023-03-01T09:01:12;13.33;;;8.80;;
3249;SDS011;1637;42.020;23.992;2023-03-01T09:03:40;14.43;;;8.97;;
3249;SDS011;1637;42.020;23.992;2023-03-01T09:06:07;23.03;;;10.83;;
3249;SDS011;1637;42.020;23.992;2023-03-01T09:08:35;10.37;;;7.53;;
3249;SDS011;1637;42.020;23.992;2023-03-01T09:11:02;29.50;;;19.53;;
3249;SDS011;1637;42.020;23.992;2023-03-01T09:13:31;12.10;;;6.77;;
3249;SDS011;1637;42.020;23.992;2023-03-01T09:15:58;24.00;;;12.97;;
3249;SDS011;1637;42.020;23.992;2023-03-01T09:18:25;68.80;;;29.90;;
3249;SDS011;1637;42.020;23.992;2023-03-01T09:20:52;58.90;;;20.47;;
3249;SDS011;1637;42.020;23.992;2023-03-01T09:23:20;56.17;;;23.10;;
3249;SDS011;1637;42.020;23.992;2023-03-01T09:25:47;7.83;;;5.40;;
3249;SDS011;1637;42.020;23.992;2023-03-01T09:28:14;16.43;;;9.33;;
3249;SDS011;1637;42.020;23.992;2023-03-01T09:30:42;11.27;;;7.17;;
3249;SDS011;1637;42.020;23.992;2023-03-01T09:33:09;6.20;;;4.27;;
3249;SDS011;1637;42.020;23.992;2023-03-01T09:35:39;5.27;;;3.63;;
3249;SDS011;1637;42.020;23.992;2023-03-01T09:38:11;4.70;;;3.50;;
3249;SDS011;1637;42.020;23.992;2023-03-01T09:40:41;12.40;;;6.80;;
3249;SDS011;1637;42.020;23.992;2023-03-01T09:43:14;7.10;;;5.60;;
3249;SDS011;1637;42.020;23.992;2023-03-01T09:45:49;8.90;;;5.07;;
3249;SDS011;1637;42.020;23.992;2023-03-01T09:48:20;14.87;;;12.00;;
3249;SDS011;1637;42.020;23.992;2023-03-01T09:50:50;7.87;;;3.80;;
3249;SDS011;1637;42.020;23.992;2023-03-01T09:53:18;3.47;;;2.90;;
3249;SDS011;1637;42.020;23.992;2023-03-01T09:55:48;21.17;;;12.00;;
3249;SDS011;1637;42.020;23.992;2023-03-01T10:01:20;31.40;;;15.80;;
3249;SDS011;1637;42.020;23.992;2023-03-01T10:06:44;27.50;;;12.07;;
3249;SDS011;1637;42.020;23.992;2023-03-01T10:09:17;47.13;;;25.60;;
3249;SDS011;1637;42.020;23.992;2023-03-01T10:11:47;33.20;;;14.57;;
3249;SDS011;1637;42.020;23.992;2023-03-01T10:14:19;36.00;;;16.60;;
3249;SDS011;1637;42.020;23.992;2023-03-01T10:16:57;18.50;;;8.13;;
3249;SDS011;1637;42.020;23.992;2023-03-01T10:19:29;18.83;;;11.10;;
3249;SDS011;1637;42.020;23.992;2023-03-01T10:22:00;20.53;;;11.03;;
3249;SDS011;1637;42.020;23.992;2023-03-01T10:24:37;12.43;;;5.77;;
3249;SDS011;1637;42.020;23.992;2023-03-01T10:27:05;22.93;;;9.87;;
3249;SDS011;1637;42.020;23.992;2023-03-01T10:29:38;29.53;;;9.93;;
3249;SDS011;1637;42.020;23.992;2023-03-01T10:32:10;25.87;;;11.17;;
3249;SDS011;1637;42.020;23.992;2023-03-01T10:34:37;21.00;;;9.20;;
3249;SDS011;1637;42.020;23.992;2023-03-01T10:37:11;49.87;;;10.20;;
3249;SDS011;1637;42.020;23.992;2023-03-01T10:39:56;23.63;;;11.67;;
3249;SDS011;1637;42.020;23.992;2023-03-01T10:42:28;37.77;;;15.17;;
3249;SDS011;1637;42.020;23.992;2023-03-01T10:44:57;24.03;;;7.37;;
3249;SDS011;1637;42.020;23.992;2023-03-01T10:47:26;36.50;;;15.50;;
3249;SDS011;1637;42.020;23.992;2023-03-01T10:49:55;39.60;;;17.17;;
3249;SDS011;1637;42.020;23.992;2023-03-01T10:52:25;26.27;;;13.00;;
3249;SDS011;1637;42.020;23.992;2023-03-01T10:54:55;41.00;;;16.77;;
3249;SDS011;1637;42.020;23.992;2023-03-01T10:57:27;51.60;;;17.57;;
3249;SDS011;1637;42.020;23.992;2023-03-01T11:03:11;36.00;;;15.50;;
3249;SDS011;1637;42.020;23.992;2023-03-01T11:05:53;27.87;;;12.23;;
3249;SDS011;1637;42.020;23.992;2023-03-01T11:08:32;42.93;;;17.93;;
3249;SDS011;1637;42.020;23.992;2023-03-01T11:11:13;38.57;;;13.57;;
3249;SDS011;1637;42.020;23.992;2023-03-01T11:13:51;24.63;;;10.93;;
3249;SDS011;1637;42.020;23.992;2023-03-01T11:16:24;19.87;;;8.80;;
3249;SDS011;1637;42.020;23.992;2023-03-01T11:18:59;19.47;;;8.30;;
3249;SDS011;1637;42.020;23.992;2023-03-01T11:21:54;27.50;;;9.80;;
3249;SDS011;1637;42.020;23.992;2023-03-01T11:24:26;29.07;;;9.53;;
3249;SDS011;1637;42.020;23.992;2023-03-01T11:26:58;20.20;;;6.40;;
3249;SDS011;1637;42.020;23.992;2023-03-01T11:29:30;37.10;;;17.87;;
3249;SDS011;1637;42.020;23.992;2023-03-01T11:32:02;31.67;;;14.83;;
3249;SDS011;1637;42.020;23.992;2023-03-01T11:34:40;21.17;;;8.90;;
3249;SDS011;1637;42.020;23.992;2023-03-01T11:37:15;61.37;;;23.07;;
3249;SDS011;1637;42.020;23.992;2023-03-01T11:39:52;49.77;;;18.87;;
3249;SDS011;1637;42.020;23.992;2023-03-01T11:42:27;67.70;;;34.43;;
3249;SDS011;1637;42.020;23.992;2023-03-01T11:44:59;39.13;;;21.80;;
3249;SDS011;1637;42.020;23.992;2023-03-01T11:47:41;23.90;;;13.50;;
3249;SDS011;1637;42.020;23.992;2023-03-01T11:50:20;51.20;;;9.23;;
3249;SDS011;1637;42.020;23.992;2023-03-01T11:52:58;29.90;;;11.53;;
3249;SDS011;1637;42.020;23.992;2023-03-01T11:55:36;31.03;;;12.77;;
3249;SDS011;1637;42.020;23.992;2023-03-01T11:58:22;21.23;;;10.07;;
3249;SDS011;1637;42.020;23.992;2023-03-01T12:01:09;35.97;;;18.17;;
3249;SDS011;1637;42.020;23.992;2023-03-01T12:03:50;55.80;;;20.53;;
3249;SDS011;1637;42.020;23.992;2023-03-01T12:06:39;31.50;;;16.53;;
3249;SDS011;1637;42.020;23.992;2023-03-01T12:09:30;30.13;;;15.27;;
3249;SDS011;1637;42.020;23.992;2023-03-01T12:15:17;14.40;;;7.20;;
3249;SDS011;1637;42.020;23.992;2023-03-01T12:17:58;17.20;;;6.60;;
3249;SDS011;1637;42.020;23.992;2023-03-01T12:20:37;17.73;;;6.00;;
3249;SDS011;1637;42.020;23.992;2023-03-01T12:23:20;14.70;;;7.90;;
3249;SDS011;1637;42.020;23.992;2023-03-01T12:26:02;21.20;;;5.90;;
3249;SDS011;1637;42.020;23.992;2023-03-01T12:28:42;12.60;;;6.10;;
3249;SDS011;1637;42.020;23.992;2023-03-01T12:31:37;24.00;;;7.23;;
3249;SDS011;1637;42.020;23.992;2023-03-01T12:34:22;36.73;;;11.80;;
3249;SDS011;1637;42.020;23.992;2023-03-01T12:37:11;14.87;;;8.47;;
3249;SDS011;1637;42.020;23.992;2023-03-01T12:39:51;14.50;;;5.77;;
3249;SDS011;1637;42.020;23.992;2023-03-01T12:42:30;23.77;;;6.17;;
3249;SDS011;1637;42.020;23.992;2023-03-01T12:45:16;19.40;;;8.00;;
3249;SDS011;1637;42.020;23.992;2023-03-01T12:48:08;22.33;;;11.27;;
3249;SDS011;1637;42.020;23.992;2023-03-01T12:50:51;12.80;;;8.30;;
3249;SDS011;1637;42.020;23.992;2023-03-01T12:53:21;19.47;;;10.20;;
3249;SDS011;1637;42.020;23.992;2023-03-01T12:55:51;32.50;;;12.53;;
3249;SDS011;1637;42.020;23.992;2023-03-01T12:58:22;43.67;;;12.37;;
3249;SDS011;1637;42.020;23.992;2023-03-01T13:00:59;9.37;;;5.40;;
3249;SDS011;1637;42.020;23.992;2023-03-01T13:03:48;12.87;;;6.50;;
3249;SDS011;1637;42.020;23.992;2023-03-01T13:06:40;34.73;;;11.60;;
3249;SDS011;1637;42.020;23.992;2023-03-01T13:09:14;18.87;;;12.03;;
3249;SDS011;1637;42.020;23.992;2023-03-01T13:11:50;23.60;;;9.70;;
3249;SDS011;1637;42.020;23.992;2023-03-01T13:14:36;15.60;;;7.70;;
3249;SDS011;1637;42.020;23.992;2023-03-01T13:20:11;34.97;;;16.23;;
3249;SDS011;1637;42.020;23.992;2023-03-01T13:22:40;20.47;;;10.40;;
3249;SDS011;1637;42.020;23.992;2023-03-01T13:25:14;9.83;;;6.23;;
3249;SDS011;1637;42.020;23.992;2023-03-01T13:27:44;17.47;;;7.70;;
3249;SDS011;1637;42.020;23.992;2023-03-01T13:36:09;11.53;;;5.80;;
3249;SDS011;1637;42.020;23.992;2023-03-01T13:38:47;12.33;;;6.17;;
3249;SDS011;1637;42.020;23.992;2023-03-01T13:44:20;18.80;;;7.73;;
3249;SDS011;1637;42.020;23.992;2023-03-01T13:46:52;12.23;;;6.33;;
3249;SDS011;1637;42.020;23.992;2023-03-01T13:49:23;11.23;;;5.27;;
3249;SDS011;1637;42.020;23.992;2023-03-01T13:51:53;22.40;;;7.60;;
3249;SDS011;1637;42.020;23.992;2023-03-01T13:54:22;18.73;;;7.10;;
3249;SDS011;1637;42.020;23.992;2023-03-01T13:56:52;17.60;;;8.07;;
3249;SDS011;1637;42.020;23.992;2023-03-01T13:59:22;13.13;;;6.93;;
3249;SDS011;1637;42.020;23.992;2023-03-01T14:01:54;11.93;;;6.10;;
3249;SDS011;1637;42.020;23.992;2023-03-01T14:04:23;8.00;;;4.77;;
3249;SDS011;1637;42.020;23.992;2023-03-01T14:06:52;8.40;;;4.60;;
3249;SDS011;1637;42.020;23.992;2023-03-01T14:09:35;10.90;;;5.00;;
3249;SDS011;1637;42.020;23.992;2023-03-01T14:12:32;12.50;;;6.40;;
3249;SDS011;1637;42.020;23.992;2023-03-01T14:15:08;20.47;;;7.60;;
3249;SDS011;1637;42.020;23.992;2023-03-01T14:17:47;13.93;;;4.50;;
3249;SDS011;1637;42.020;23.992;2023-03-01T14:20:30;5.03;;;3.30;;
3249;SDS011;1637;42.020;23.992;2023-03-01T14:23:01;7.70;;;6.00;;
3249;SDS011;1637;42.020;23.992;2023-03-01T14:25:35;7.50;;;4.80;;
3249;SDS011;1637;42.020;23.992;2023-03-01T14:28:04;22.23;;;5.63;;
3249;SDS011;1637;42.020;23.992;2023-03-01T14:30:43;12.47;;;7.00;;
3249;SDS011;1637;42.020;23.992;2023-03-01T14:33:18;18.80;;;6.73;;
3249;SDS011;1637;42.020;23.992;2023-03-01T14:35:54;13.77;;;6.30;;
3249;SDS011;1637;42.020;23.992;2023-03-01T14:38:23;21.30;;;7.47;;
3249;SDS011;1637;42.020;23.992;2023-03-01T14:40:57;12.00;;;7.47;;
3249;SDS011;1637;42.020;23.992;2023-03-01T14:43:26;19.93;;;8.30;;
3249;SDS011;1637;42.020;23.992;2023-03-01T14:45:56;29.87;;;9.50;;
3249;SDS011;1637;42.020;23.992;2023-03-01T14:48:23;11.43;;;6.47;;
3249;SDS011;1637;42.020;23.992;2023-03-01T14:50:53;11.80;;;6.00;;
3249;SDS011;1637;42.020;23.992;2023-03-01T14:53:21;14.60;;;7.13;;
3249;SDS011;1637;42.020;23.992;2023-03-01T14:55:50;17.10;;;8.50;;
3249;SDS011;1637;42.020;23.992;2023-03-01T14:58:19;13.10;;;7.30;;
3249;SDS011;1637;42.020;23.992;2023-03-01T15:00:49;16.53;;;8.47;;
3249;SDS011;1637;42.020;23.992;2023-03-01T15:03:25;46.60;;;19.00;;
3249;SDS011;1637;42.020;23.992;2023-03-01T15:05:56;73.70;;;32.03;;
3249;SDS011;1637;42.020;23.992;2023-03-01T15:08:24;86.30;;;34.67;;
3249;SDS011;1637;42.020;23.992;2023-03-01T15:11:02;90.77;;;42.90;;
3249;SDS011;1637;42.020;23.992;2023-03-01T15:13:31;81.83;;;37.80;;
3249;SDS011;1637;42.020;23.992;2023-03-01T15:16:06;79.47;;;36.03;;
3249;SDS011;1637;42.020;23.992;2023-03-01T15:18:37;105.80;;;40.83;;
3249;SDS011;1637;42.020;23.992;2023-03-01T15:21:15;77.43;;;33.20;;
3249;SDS011;1637;42.020;23.992;2023-03-01T15:23:47;37.30;;;15.30;;
3249;SDS011;1637;42.020;23.992;2023-03-01T15:26:25;74.80;;;31.23;;
3249;SDS011;1637;42.020;23.992;2023-03-01T15:28:55;13.00;;;7.40;;
3249;SDS011;1637;42.020;23.992;2023-03-01T15:31:26;35.93;;;15.47;;
3249;SDS011;1637;42.020;23.992;2023-03-01T15:34:08;67.17;;;30.23;;